createdAt,value
2022-09-05T00:00:35.553Z,70.71
2022-09-05T00:02:03.437Z,70.59
2022-09-05T00:03:35.708Z,70.39
2022-09-05T00:05:33.827Z,69.95
2022-09-05T00:07:08.705Z,69.87
2022-09-05T00:08:56.975Z,69.88
2022-09-05T00:10:47.974Z,69.67
2022-09-05T00:12:23.323Z,69.28
2022-09-05T00:13:52.619Z,69.35
2022-09-05T00:15:29.029Z,69.54
2022-09-05T00:17:14.624Z,69.12
2022-09-05T00:22:55.606Z,68.95
2022-09-05T00:24:20.154Z,68.97
2022-09-05T00:24:34.503Z,68.97
2022-09-05T00:24:42.484Z,69.06
2022-09-05T00:26:29.361Z,69.24
2022-09-05T00:28:01.258Z,68.90
2022-09-05T00:31:05.531Z,68.51
2022-09-05T00:32:02.829Z,68.79
2022-09-05T00:33:54.149Z,68.38
2022-09-05T00:35:34.233Z,68.06
2022-09-05T00:36:55.559Z,67.91
2022-09-05T00:38:25.917Z,67.79
2022-09-05T00:40:17.291Z,67.65
2022-09-05T00:41:32.878Z,67.61
2022-09-05T00:43:02.374Z,67.37
2022-09-05T00:44:29.749Z,67.32
2022-09-05T00:46:02.937Z,67.38
2022-09-05T00:47:51.385Z,67.63
2022-09-05T00:49:30.714Z,67.44
2022-09-05T00:51:34.278Z,67.40
2022-09-05T00:53:18.499Z,67.31
2022-09-05T00:55:02.482Z,67.34
2022-09-05T00:56:52.752Z,67.57
2022-09-05T00:58:26.826Z,67.58
2022-09-05T01:00:24.938Z,67.35
2022-09-05T01:01:59.371Z,67.62
2022-09-05T01:03:37.477Z,67.64
2022-09-05T01:05:08.008Z,67.92
2022-09-05T01:06:49.337Z,67.89
2022-09-05T01:08:47.652Z,68.17
2022-09-05T01:10:09.449Z,68.31
2022-09-05T01:11:40.237Z,68.64
2022-09-05T01:13:35.990Z,68.31
2022-09-05T01:15:12.186Z,68.40
2022-09-05T01:16:53.559Z,68.26
2022-09-05T01:18:26.882Z,68.64
2022-09-05T01:20:19.127Z,68.78
2022-09-05T01:22:21.793Z,68.71
2022-09-05T01:23:57.914Z,68.46
2022-09-05T01:25:40.428Z,68.52
2022-09-05T01:27:24.659Z,68.53
2022-09-05T01:29:15.253Z,68.92
2022-09-05T01:31:06.211Z,68.90
2022-09-05T01:32:40.286Z,68.69
2022-09-05T01:34:31.584Z,68.56
2022-09-05T01:36:40.582Z,68.56
2022-09-05T01:38:21.330Z,68.40
2022-09-05T01:40:14.716Z,68.28
2022-09-05T01:41:54.393Z,68.33
2022-09-05T01:43:19.385Z,68.25
2022-09-05T01:45:07.447Z,68.21
2022-09-05T01:46:34.787Z,68.36
2022-09-05T01:48:11.974Z,68.30
2022-09-05T01:50:01.099Z,68.58
2022-09-05T01:51:41.395Z,68.60
2022-09-05T01:53:25.654Z,69.03
2022-09-05T01:55:02.530Z,68.86
2022-09-05T01:56:45.290Z,69.16
2022-09-05T01:58:22.884Z,69.33
2022-09-05T02:00:01.146Z,69.13
2022-09-05T02:01:40.425Z,69.45
2022-09-05T02:03:27.807Z,69.37
2022-09-05T02:05:13.013Z,69.56
2022-09-05T02:07:19.379Z,69.53
2022-09-05T02:09:16.280Z,69.58
2022-09-05T02:11:05.245Z,69.63
2022-09-05T02:13:03.130Z,70.06
2022-09-05T02:14:34.246Z,69.88
2022-09-05T02:16:13.752Z,69.79
2022-09-05T02:17:51.007Z,69.75
2022-09-05T02:19:22.875Z,69.75
2022-09-05T02:20:53.588Z,69.45
2022-09-05T02:22:33.430Z,69.57
2022-09-05T02:24:03.294Z,69.46
2022-09-05T02:26:01.463Z,69.42
2022-09-05T02:28:05.768Z,69.31
2022-09-05T02:29:38.757Z,69.41
2022-09-05T02:31:20.264Z,69.41
2022-09-05T02:33:20.738Z,69.33
2022-09-05T02:34:45.901Z,69.21
2022-09-05T02:36:14.710Z,69.12
2022-09-05T02:40:06.183Z,69.00
2022-09-05T02:45:01.379Z,68.93
2022-09-05T02:45:10.694Z,68.78
2022-09-05T02:45:15.328Z,68.74
2022-09-05T02:45:35.231Z,68.65
2022-09-05T02:47:16.431Z,68.49
2022-09-05T02:49:21.677Z,68.61
2022-09-05T02:57:35.237Z,68.74
2022-09-05T02:57:35.597Z,68.81
2022-09-05T02:57:41.589Z,68.89
2022-09-05T02:57:46.090Z,68.57
2022-09-05T02:59:06.057Z,68.43
2022-09-05T03:00:28.983Z,68.56
2022-09-05T03:02:25.498Z,68.37
2022-09-05T03:04:13.026Z,68.39
2022-09-05T03:05:52.336Z,68.12
2022-09-05T03:07:52.134Z,67.62
2022-09-05T03:09:31.105Z,67.75
2022-09-05T03:11:21.775Z,67.46
2022-09-05T03:13:18.372Z,67.69
2022-09-05T03:15:18.823Z,67.69
2022-09-05T03:17:19.461Z,67.80
2022-09-05T03:19:16.481Z,67.42
2022-09-05T03:20:53.609Z,67.70
2022-09-05T03:22:36.228Z,67.66
2022-09-05T03:24:17.593Z,67.57
2022-09-05T03:26:06.053Z,67.44
2022-09-05T03:28:05.401Z,67.97
2022-09-05T03:30:01.890Z,67.29
2022-09-05T03:31:56.936Z,67.36
2022-09-05T03:34:08.258Z,67.24
2022-09-05T03:35:46.113Z,67.25
2022-09-05T03:37:26.869Z,67.60
2022-09-05T03:39:28.981Z,67.71
2022-09-05T03:41:40.272Z,67.81
2022-09-05T03:43:31.234Z,67.87
2022-09-05T03:45:27.019Z,67.92
2022-09-05T03:47:20.473Z,68.09
2022-09-05T03:49:33.840Z,68.54
2022-09-05T03:57:05.969Z,68.37
2022-09-05T03:57:12.691Z,68.61
2022-09-05T03:57:16.933Z,68.08
2022-09-05T03:57:20.726Z,68.06
2022-09-05T03:59:10.641Z,68.13
2022-09-05T04:00:37.154Z,68.15
2022-09-05T04:03:21.594Z,68.35
2022-09-05T04:08:08.424Z,68.26
2022-09-05T04:08:15.466Z,67.92
2022-09-05T04:08:19.247Z,68.32
2022-09-05T04:09:49.518Z,67.84
2022-09-05T04:11:37.551Z,68.02
2022-09-05T04:13:08.413Z,68.62
2022-09-05T04:14:47.668Z,68.49
2022-09-05T04:16:31.806Z,68.32
2022-09-05T04:18:04.556Z,68.48
2022-09-05T04:19:37.604Z,68.71
2022-09-05T04:21:26.016Z,68.93
2022-09-05T04:23:12.368Z,69.04
2022-09-05T04:24:52.745Z,69.25
2022-09-05T04:26:41.537Z,69.76
2022-09-05T04:28:53.462Z,69.74
2022-09-05T04:30:39.329Z,69.61
2022-09-05T04:32:19.480Z,69.77
2022-09-05T04:34:03.294Z,69.86
2022-09-05T04:35:33.199Z,69.17
2022-09-05T04:37:09.602Z,69.34
2022-09-05T04:38:39.925Z,68.92
2022-09-05T04:40:37.732Z,69.12
2022-09-05T04:42:05.701Z,68.80
2022-09-05T04:43:40.417Z,68.57
2022-09-05T04:45:08.368Z,68.27
2022-09-05T04:46:47.516Z,67.86
2022-09-05T04:48:15.763Z,67.53
2022-09-05T04:49:44.314Z,68.14
2022-09-05T04:52:00.225Z,67.64
2022-09-05T04:54:04.545Z,67.84
2022-09-05T04:55:28.882Z,67.62
2022-09-05T04:56:56.350Z,67.20
2022-09-05T05:03:22.082Z,67.17
2022-09-05T05:06:02.167Z,66.97
2022-09-05T05:06:13.106Z,67.00
2022-09-05T05:06:17.340Z,66.88
2022-09-05T05:07:59.341Z,66.31
2022-09-05T05:09:27.746Z,66.29
2022-09-05T05:17:25.362Z,66.43
2022-09-05T05:17:55.225Z,65.66
2022-09-05T05:18:01.198Z,65.56
2022-09-05T05:18:11.662Z,65.75
2022-09-05T05:19:47.347Z,65.20
2022-09-05T05:21:29.981Z,64.92
2022-09-05T05:23:07.328Z,64.92
2022-09-05T05:24:35.354Z,65.19
2022-09-05T05:26:00.359Z,64.74
2022-09-05T05:27:26.018Z,64.54
2022-09-05T05:29:14.397Z,63.86
2022-09-05T05:30:40.136Z,63.61
2022-09-05T05:32:03.969Z,63.70
2022-09-05T05:33:40.174Z,62.94
2022-09-05T05:35:08.847Z,62.84
2022-09-05T05:36:39.216Z,62.46
2022-09-05T05:38:01.472Z,62.42
2022-09-05T05:39:27.426Z,61.93
2022-09-05T05:40:56.733Z,61.95
2022-09-05T05:42:23.424Z,62.01
2022-09-05T05:43:46.861Z,61.84
2022-09-05T05:45:34.257Z,61.27
2022-09-05T05:47:15.908Z,61.42
2022-09-05T05:48:40.926Z,60.80
2022-09-05T05:50:23.033Z,60.61
2022-09-05T05:52:02.564Z,60.39
2022-09-05T05:53:42.349Z,60.31
2022-09-05T05:55:52.872Z,60.35
2022-09-05T05:57:45.940Z,60.31
2022-09-05T05:59:08.077Z,60.30
2022-09-05T06:00:56.037Z,59.40
2022-09-05T06:03:25.256Z,59.58
2022-09-05T06:05:03.186Z,59.48
2022-09-05T06:06:54.913Z,59.34
2022-09-05T06:12:38.772Z,58.64
2022-09-05T06:14:55.327Z,59.47
2022-09-05T06:14:58.873Z,58.02
2022-09-05T06:15:11.564Z,57.69
2022-09-05T06:16:53.990Z,58.02
2022-09-05T06:18:28.509Z,57.94
2022-09-05T06:22:08.366Z,57.77
2022-09-05T06:22:51.960Z,58.39
2022-09-05T06:24:47.305Z,58.82
2022-09-05T06:26:36.359Z,58.89
2022-09-05T06:28:26.795Z,58.44
2022-09-05T06:30:08.863Z,57.86
2022-09-05T06:31:41.816Z,57.26
2022-09-05T06:33:21.312Z,57.37
2022-09-05T06:35:06.997Z,56.94
2022-09-05T06:36:45.200Z,57.16
2022-09-05T06:38:39.274Z,57.21
2022-09-05T06:40:33.070Z,56.78
2022-09-05T06:42:15.454Z,56.43
2022-09-05T06:43:56.288Z,55.56
2022-09-05T06:45:59.295Z,55.90
2022-09-05T06:47:23.796Z,55.54
2022-09-05T06:49:32.350Z,55.23
2022-09-05T06:51:11.898Z,56.02
2022-09-05T06:53:20.987Z,55.85
2022-09-05T06:55:16.542Z,55.57
2022-09-05T06:56:54.436Z,54.85
2022-09-05T06:58:50.985Z,55.61
2022-09-05T07:00:22.160Z,55.97
2022-09-05T07:02:00.309Z,55.47
2022-09-05T07:04:33.239Z,54.85
2022-09-05T07:06:04.792Z,54.99
2022-09-05T07:07:46.092Z,54.15
2022-09-05T07:09:22.747Z,53.33
2022-09-05T07:11:15.804Z,52.90
2022-09-05T07:12:52.804Z,52.60
2022-09-05T07:14:23.020Z,51.91
2022-09-05T07:16:10.537Z,51.65
2022-09-05T07:17:48.510Z,52.26
2022-09-05T07:19:38.421Z,51.84
2022-09-05T07:21:26.116Z,52.28
2022-09-05T07:22:54.598Z,51.04
2022-09-05T07:24:39.078Z,51.37
2022-09-05T07:26:04.061Z,51.10
2022-09-05T07:28:26.168Z,51.68
2022-09-05T07:29:53.467Z,52.09
2022-09-05T07:31:37.157Z,52.18
2022-09-05T07:33:01.647Z,51.96
2022-09-05T07:34:32.733Z,51.43
2022-09-05T07:35:55.781Z,50.54
2022-09-05T07:37:23.424Z,49.82
2022-09-05T07:39:02.364Z,50.92
2022-09-05T07:40:32.013Z,50.28
2022-09-05T07:41:57.840Z,49.92
2022-09-05T07:43:26.448Z,50.16
2022-09-05T07:44:59.038Z,50.20
2022-09-05T07:46:35.497Z,50.14
2022-09-05T07:48:03.977Z,50.18
2022-09-05T07:49:31.108Z,49.89
2022-09-05T07:56:46.340Z,49.81
2022-09-05T07:56:55.051Z,49.69
2022-09-05T07:57:08.505Z,49.14
2022-09-05T07:58:49.757Z,49.33
2022-09-05T08:00:26.387Z,47.64
2022-09-05T08:01:53.277Z,48.39
2022-09-05T08:03:14.884Z,47.91
2022-09-05T08:04:39.266Z,48.64
2022-09-05T08:06:05.440Z,48.67
2022-09-05T08:07:46.512Z,48.35
2022-09-05T08:10:05.874Z,48.36
2022-09-05T08:11:25.825Z,48.98
2022-09-05T08:13:24.744Z,48.67
2022-09-05T08:14:44.742Z,47.23
2022-09-05T08:16:13.169Z,48.28
2022-09-05T08:18:00.030Z,48.54
2022-09-05T08:19:40.143Z,47.47
2022-09-05T08:21:13.945Z,45.76
2022-09-05T08:22:52.665Z,46.68
2022-09-05T08:24:26.875Z,46.54
2022-09-05T08:26:08.138Z,46.69
2022-09-05T08:27:44.722Z,47.08
2022-09-05T08:29:36.854Z,46.37
2022-09-05T08:31:06.954Z,45.02
2022-09-05T08:32:44.253Z,45.31
2022-09-05T08:34:12.376Z,44.72
2022-09-05T08:35:49.435Z,44.92
2022-09-05T08:37:21.032Z,44.61
2022-09-05T08:38:43.982Z,42.87
2022-09-05T08:40:30.825Z,43.48
2022-09-05T08:42:27.466Z,45.12
2022-09-05T08:46:37.623Z,43.92
2022-09-05T08:46:41.438Z,44.49
2022-09-05T08:47:45.511Z,45.39
2022-09-05T08:49:37.885Z,44.01
2022-09-05T08:51:21.990Z,43.56
2022-09-05T08:53:36.012Z,42.35
2022-09-05T08:55:11.694Z,42.53
2022-09-05T08:56:38.501Z,42.84
2022-09-05T08:58:35.928Z,42.13
2022-09-05T09:00:20.384Z,41.64
2022-09-05T09:02:46.254Z,40.67
2022-09-05T09:04:37.148Z,41.84
2022-09-05T09:06:23.957Z,41.36
2022-09-05T09:08:03.368Z,41.69
2022-09-05T09:09:47.629Z,42.28
2022-09-05T09:11:27.165Z,42.38
2022-09-05T09:13:04.900Z,41.58
2022-09-05T09:14:37.605Z,41.70
2022-09-05T09:16:30.556Z,41.19
2022-09-05T09:17:53.037Z,41.54
2022-09-05T09:19:29.243Z,42.22
2022-09-05T09:20:59.513Z,41.68
2022-09-05T09:22:50.181Z,39.82
2022-09-05T09:24:24.298Z,40.62
2022-09-05T09:25:56.998Z,41.26
2022-09-05T09:28:48.823Z,40.94
2022-09-05T09:29:42.397Z,40.40
2022-09-05T09:31:44.149Z,40.45
2022-09-05T09:33:08.916Z,39.38
2022-09-05T09:34:32.772Z,41.20
2022-09-05T09:36:28.827Z,40.80
2022-09-05T09:38:07.032Z,42.11
2022-09-05T09:40:00.307Z,39.30
2022-09-05T09:41:33.446Z,39.43
2022-09-05T09:43:07.113Z,39.67
2022-09-05T09:44:52.263Z,39.99
2022-09-05T09:46:39.337Z,38.10
2022-09-05T09:48:26.954Z,38.41
2022-09-05T09:49:51.769Z,40.10
2022-09-05T09:51:33.746Z,40.35
2022-09-05T09:53:14.278Z,39.29
2022-09-05T09:55:09.377Z,40.74
2022-09-05T09:57:14.696Z,39.60
2022-09-05T09:58:55.586Z,38.38
2022-09-05T10:00:24.544Z,38.74
2022-09-05T10:02:45.352Z,39.23
2022-09-05T10:09:32.697Z,39.74
2022-09-05T10:10:38.185Z,38.74
2022-09-05T10:10:53.993Z,37.74
2022-09-05T10:11:08.156Z,38.88
2022-09-05T10:12:08.665Z,38.43
2022-09-05T10:14:02.166Z,36.99
2022-09-05T10:15:38.175Z,37.55
2022-09-05T10:17:35.259Z,37.89
2022-09-05T10:20:07.416Z,38.58
2022-09-05T10:21:17.724Z,38.48
2022-09-05T10:22:55.608Z,37.78
2022-09-05T10:24:14.431Z,36.83
2022-09-05T10:26:01.376Z,39.59
2022-09-05T10:27:39.003Z,37.84
2022-09-05T10:29:37.889Z,38.92
2022-09-05T10:33:24.274Z,39.16
2022-09-05T10:35:16.251Z,37.99
2022-09-05T10:35:22.271Z,36.67
2022-09-05T10:36:52.353Z,37.73
2022-09-05T10:38:21.315Z,37.82
2022-09-05T10:39:48.441Z,37.63
2022-09-05T10:41:21.295Z,36.65
2022-09-05T10:43:00.998Z,36.02
2022-09-05T10:44:36.840Z,37.61
2022-09-05T10:45:55.855Z,36.66
2022-09-05T10:47:35.058Z,35.86
2022-09-05T10:49:02.136Z,36.12
2022-09-05T10:50:36.234Z,36.31
2022-09-05T10:52:19.306Z,35.15
2022-09-05T10:53:39.986Z,35.02
2022-09-05T10:55:18.509Z,33.52
2022-09-05T10:56:49.575Z,32.85
2022-09-05T10:59:23.358Z,32.61
2022-09-05T11:02:26.500Z,34.82
2022-09-05T11:02:46.693Z,34.52
2022-09-05T11:04:46.759Z,32.57
2022-09-05T11:06:16.831Z,33.05
2022-09-05T11:07:58.867Z,31.99
2022-09-05T11:09:49.125Z,31.78
2022-09-05T11:11:28.302Z,31.08
2022-09-05T11:13:19.992Z,31.86
2022-09-05T11:14:52.429Z,31.07
2022-09-05T11:16:32.599Z,32.47
2022-09-05T11:18:06.613Z,30.65
2022-09-05T11:19:45.485Z,30.82
2022-09-05T11:21:08.358Z,30.27
2022-09-05T11:22:37.032Z,30.11
2022-09-05T11:24:07.457Z,30.69
2022-09-05T11:25:39.879Z,29.93
2022-09-05T11:27:36.322Z,29.94
2022-09-05T11:29:08.784Z,30.55
2022-09-05T11:30:40.652Z,30.21
2022-09-05T11:36:06.930Z,29.69
2022-09-05T11:39:51.485Z,29.12
2022-09-05T11:39:53.322Z,28.62
2022-09-05T11:39:53.894Z,28.90
2022-09-05T11:40:28.905Z,28.10
2022-09-05T11:41:49.360Z,29.04
2022-09-05T11:43:11.380Z,28.42
2022-09-05T11:45:08.567Z,28.11
2022-09-05T11:46:42.556Z,27.83
2022-09-05T11:48:26.770Z,28.30
2022-09-05T11:50:10.420Z,27.28
2022-09-05T11:52:16.877Z,27.49
2022-09-05T11:53:54.584Z,27.53
2022-09-05T11:55:32.858Z,27.13
2022-09-05T11:57:33.908Z,26.93
2022-09-05T11:59:33.843Z,26.61
2022-09-05T12:01:41.286Z,26.72
2022-09-05T12:03:13.433Z,27.11
2022-09-05T12:05:48.923Z,27.84
2022-09-05T12:07:15.617Z,27.45
2022-09-05T12:09:00.578Z,26.75
2022-09-05T12:10:47.184Z,27.14
2022-09-05T12:12:39.417Z,26.57
2022-09-05T12:14:20.996Z,25.60
2022-09-05T12:16:07.310Z,25.51
2022-09-05T12:18:00.546Z,25.54
2022-09-05T12:19:39.249Z,26.35
2022-09-05T12:21:38.147Z,25.73
2022-09-05T12:23:31.179Z,24.95
2022-09-05T12:25:26.290Z,25.35
2022-09-05T12:27:39.894Z,24.95
2022-09-05T12:29:33.658Z,24.63
2022-09-05T12:31:07.167Z,24.16
2022-09-05T12:33:52.355Z,25.71
2022-09-05T12:36:10.873Z,24.95
2022-09-05T12:40:16.646Z,24.05
2022-09-05T12:40:55.750Z,24.74
2022-09-05T12:41:37.580Z,23.95
2022-09-05T12:42:40.083Z,24.44
2022-09-05T12:44:42.387Z,23.94
2022-09-05T12:46:23.686Z,23.50
2022-09-05T12:48:16.612Z,23.01
2022-09-05T12:49:51.971Z,22.87
2022-09-05T12:51:46.569Z,22.77
2022-09-05T12:53:15.381Z,22.60
2022-09-05T12:54:56.885Z,22.34
2022-09-05T12:58:34.721Z,22.90
2022-09-05T13:02:58.786Z,22.56
2022-09-05T13:03:06.200Z,22.52
2022-09-05T13:03:08.112Z,22.29
2022-09-05T13:03:29.829Z,22.17
2022-09-05T13:05:02.334Z,21.12
2022-09-05T13:06:39.168Z,21.43
2022-09-05T13:08:01.476Z,22.37
2022-09-05T13:10:07.647Z,21.89
2022-09-05T13:14:49.268Z,21.81
2022-09-05T13:15:06.047Z,21.08
2022-09-05T13:15:20.023Z,21.28
2022-09-05T13:16:48.115Z,22.04
2022-09-05T13:18:16.955Z,21.74
2022-09-05T13:19:47.411Z,21.52
2022-09-05T13:21:15.961Z,22.47
2022-09-05T13:22:48.578Z,20.75
2022-09-05T13:24:12.075Z,21.65
2022-09-05T13:25:37.224Z,21.97
2022-09-05T13:27:19.998Z,22.26
2022-09-05T13:29:09.941Z,22.98
2022-09-05T13:32:23.826Z,21.66
2022-09-05T13:37:59.937Z,21.04
2022-09-05T13:38:01.012Z,21.04
2022-09-05T13:38:15.470Z,21.68
2022-09-05T13:40:04.435Z,21.16
2022-09-05T13:41:30.589Z,20.14
2022-09-05T13:43:26.435Z,20.64
2022-09-05T13:44:52.464Z,20.26
2022-09-05T13:46:21.307Z,20.58
2022-09-05T13:48:16.974Z,20.27
2022-09-05T13:50:07.674Z,19.72
2022-09-05T13:51:35.544Z,19.77
2022-09-05T13:53:02.404Z,20.82
2022-09-05T13:54:38.307Z,20.28
2022-09-05T13:56:24.015Z,19.61
2022-09-05T13:57:46.914Z,20.14
2022-09-05T13:59:14.116Z,19.39
2022-09-05T14:00:38.237Z,19.84
2022-09-05T14:06:51.593Z,19.94
2022-09-05T14:08:35.969Z,20.08
2022-09-05T14:10:01.166Z,19.33
2022-09-05T14:11:45.269Z,20.26
2022-09-05T14:13:24.099Z,20.24
2022-09-05T14:15:15.675Z,20.26
2022-09-05T14:16:49.862Z,19.85
2022-09-05T14:18:54.452Z,21.00
2022-09-05T14:20:33.813Z,19.82
2022-09-05T14:21:53.263Z,21.07
2022-09-05T14:23:15.234Z,20.83
2022-09-05T14:24:46.291Z,19.89
2022-09-05T14:26:21.578Z,20.16
2022-09-05T14:27:45.681Z,19.79
2022-09-05T14:29:34.451Z,20.06
2022-09-05T14:34:47.746Z,19.35
2022-09-05T14:37:40.299Z,19.09
2022-09-05T14:37:42.477Z,19.49
2022-09-05T14:37:54.702Z,19.25
2022-09-05T14:38:11.559Z,19.82
2022-09-05T14:39:42.352Z,20.56
2022-09-05T14:41:26.222Z,20.55
2022-09-05T14:43:01.291Z,20.11
2022-09-05T14:44:24.127Z,21.23
2022-09-05T14:46:00.655Z,20.27
2022-09-05T14:47:36.438Z,21.02
2022-09-05T14:48:58.255Z,21.57
2022-09-05T14:50:36.148Z,22.39
2022-09-05T14:51:39.143Z,21.42
2022-09-05T14:57:23.090Z,23.74
2022-09-05T15:02:42.782Z,23.33
2022-09-05T15:02:52.078Z,24.20
2022-09-05T15:02:52.715Z,24.23
2022-09-05T15:02:55.254Z,23.71
2022-09-05T15:05:13.222Z,23.60
2022-09-05T15:06:21.047Z,23.77
2022-09-05T15:07:37.145Z,23.24
2022-09-05T15:12:18.698Z,22.95
2022-09-05T15:12:21.214Z,23.25
2022-09-05T15:12:23.425Z,24.30
2022-09-05T15:13:10.215Z,22.85
2022-09-05T15:14:14.739Z,23.66
2022-09-05T15:15:31.620Z,23.38
2022-09-05T15:16:38.570Z,23.61
2022-09-05T15:17:48.769Z,23.91
2022-09-05T15:18:53.161Z,22.87
2022-09-05T15:20:07.304Z,22.97
2022-09-05T15:21:35.552Z,22.17
2022-09-05T15:22:47.062Z,22.72
2022-09-05T15:24:13.744Z,22.49
2022-09-05T15:25:21.341Z,21.46
2022-09-05T15:26:26.631Z,21.42
2022-09-05T15:27:30.195Z,21.69
2022-09-05T15:28:31.762Z,22.62
2022-09-05T15:29:35.240Z,22.62
2022-09-05T15:30:37.009Z,22.91
2022-09-05T15:31:39.309Z,23.57
2022-09-05T15:32:42.559Z,23.24
2022-09-05T15:33:45.018Z,23.46
2022-09-05T15:34:47.342Z,23.37
2022-09-05T15:35:49.576Z,23.51
2022-09-05T15:36:56.296Z,23.74
2022-09-05T15:38:28.112Z,24.02
2022-09-05T15:39:33.720Z,24.86
2022-09-05T15:40:35.827Z,24.86
2022-09-05T15:41:43.128Z,25.98
2022-09-05T15:42:51.539Z,25.81
2022-09-05T15:44:09.328Z,26.09
2022-09-05T15:45:20.765Z,25.94
2022-09-05T15:46:30.880Z,26.00
2022-09-05T15:47:43.748Z,25.95
2022-09-05T15:48:55.698Z,26.14
2022-09-05T15:50:06.345Z,25.86
2022-09-05T15:51:40.405Z,26.18
2022-09-05T15:52:48.736Z,26.13
2022-09-05T15:53:58.239Z,26.08
2022-09-05T15:55:12.181Z,26.06
2022-09-05T15:56:19.605Z,26.38
2022-09-05T15:57:29.912Z,27.04
2022-09-05T15:58:52.578Z,26.88
2022-09-05T16:00:02.045Z,26.63
2022-09-05T16:01:18.323Z,27.35
2022-09-05T16:02:44.740Z,27.03
2022-09-05T16:10:26.858Z,26.94
2022-09-05T16:10:29.674Z,26.33
2022-09-05T16:10:37.274Z,27.10
2022-09-05T16:10:48.603Z,27.49
2022-09-05T16:10:49.483Z,28.02
2022-09-05T16:12:03.057Z,28.75
2022-09-05T16:12:50.866Z,29.64
2022-09-05T16:14:08.881Z,30.10
2022-09-05T16:19:23.436Z,30.66
2022-09-05T16:22:30.383Z,31.91
2022-09-05T16:23:14.636Z,33.05
2022-09-05T16:23:26.368Z,33.98
2022-09-05T16:23:29.139Z,35.16
2022-09-05T16:23:30.902Z,34.25
2022-09-05T16:24:38.638Z,36.07
2022-09-05T16:25:56.096Z,36.83
2022-09-05T16:27:02.953Z,37.13
2022-09-05T16:28:14.267Z,37.72
2022-09-05T16:29:25.496Z,37.76
2022-09-05T16:30:32.745Z,38.00
2022-09-05T16:31:47.569Z,38.41
2022-09-05T16:32:55.412Z,38.78
2022-09-05T16:33:59.857Z,38.77
2022-09-05T16:35:09.325Z,39.29
2022-09-05T16:36:36.725Z,39.76
2022-09-05T16:37:53.969Z,39.58
2022-09-05T16:39:02.357Z,40.17
2022-09-05T16:40:13.201Z,40.10
2022-09-05T16:41:40.884Z,40.45
2022-09-05T16:42:56.302Z,40.43
2022-09-05T16:44:09.819Z,40.97
2022-09-05T16:45:46.674Z,41.26
2022-09-05T16:47:06.664Z,41.63
2022-09-05T16:48:39.007Z,42.11
2022-09-05T16:49:54.542Z,42.74
2022-09-05T16:51:34.875Z,43.05
2022-09-05T16:52:57.552Z,43.14
2022-09-05T16:54:11.091Z,43.17
2022-09-05T16:55:26.082Z,43.74
2022-09-05T16:56:43.355Z,43.89
2022-09-05T16:58:14.272Z,44.11
2022-09-05T16:59:27.070Z,44.51
2022-09-05T17:00:54.058Z,44.68
2022-09-05T17:02:12.663Z,44.89
2022-09-05T17:03:53.300Z,45.08
2022-09-05T17:05:06.607Z,45.58
2022-09-05T17:06:25.662Z,45.75
2022-09-05T17:07:35.559Z,46.12
2022-09-05T17:08:44.071Z,46.55
2022-09-05T17:09:46.140Z,46.46
2022-09-05T17:11:12.151Z,46.51
2022-09-05T17:12:26.520Z,46.90
2022-09-05T17:13:43.061Z,47.44
2022-09-05T17:14:51.229Z,47.69
2022-09-05T17:15:54.234Z,47.98
2022-09-05T17:17:02.076Z,48.16
2022-09-05T17:18:27.863Z,48.30
2022-09-05T17:19:43.539Z,48.30
2022-09-05T17:21:03.283Z,48.72
2022-09-05T17:26:13.258Z,49.35
2022-09-05T17:29:19.010Z,49.51
2022-09-05T17:29:23.472Z,49.69
2022-09-05T17:29:25.496Z,50.36
2022-09-05T17:29:26.606Z,50.43
2022-09-05T17:32:52.356Z,51.79
2022-09-05T17:33:56.269Z,51.84
2022-09-05T17:35:17.483Z,51.84
2022-09-05T17:36:44.924Z,51.99
2022-09-05T17:38:16.987Z,52.27
2022-09-05T17:39:46.616Z,53.54
2022-09-05T17:41:07.787Z,53.72
2022-09-05T17:42:27.567Z,55.02
2022-09-05T17:43:34.885Z,55.38
2022-09-05T17:44:53.174Z,55.00
2022-09-05T17:46:12.142Z,55.29
2022-09-05T17:47:35.544Z,54.83
2022-09-05T17:49:19.747Z,54.94
2022-09-05T17:50:24.743Z,54.78
2022-09-05T17:51:29.838Z,55.22
2022-09-05T17:52:47.252Z,55.50
2022-09-05T17:54:18.686Z,56.01
2022-09-05T17:55:20.397Z,56.67
2022-09-05T17:56:37.321Z,57.32
2022-09-05T17:57:41.090Z,57.07
2022-09-05T17:59:03.478Z,56.72
2022-09-05T18:00:43.883Z,56.62
2022-09-05T18:02:06.799Z,57.68
2022-09-05T18:03:08.505Z,57.92
2022-09-05T18:04:18.039Z,57.87
2022-09-05T18:05:54.772Z,57.86
2022-09-05T18:07:00.530Z,57.77
2022-09-05T18:08:03.146Z,57.87
2022-09-05T18:09:11.811Z,57.67
2022-09-05T18:10:27.490Z,57.25
2022-09-05T18:11:29.605Z,57.30
2022-09-05T18:13:31.934Z,57.59
2022-09-05T18:15:33.620Z,57.09
2022-09-05T18:18:55.945Z,56.42
2022-09-05T18:19:34.041Z,56.37
2022-09-05T18:22:32.865Z,57.32
2022-09-05T18:23:43.873Z,57.36
2022-09-05T18:25:28.689Z,56.80
2022-09-05T18:26:28.352Z,56.97
2022-09-05T18:28:05.168Z,56.65
2022-09-05T18:29:57.547Z,56.55
2022-09-05T18:30:46.904Z,56.37
2022-09-05T18:31:52.051Z,56.15
2022-09-05T18:33:29.018Z,56.24
2022-09-05T18:34:15.414Z,55.99
2022-09-05T18:35:28.005Z,55.84
2022-09-05T18:36:41.039Z,55.98
2022-09-05T18:37:53.761Z,56.08
2022-09-05T18:39:26.188Z,56.49
2022-09-05T18:41:05.293Z,56.83
2022-09-05T18:42:25.919Z,57.07
2022-09-05T18:43:53.337Z,57.20
2022-09-05T18:45:17.659Z,57.65
2022-09-05T18:46:47.415Z,57.64
2022-09-05T18:47:58.859Z,57.98
2022-09-05T18:50:21.632Z,58.25
2022-09-05T18:50:46.541Z,58.88
2022-09-05T18:52:00.528Z,58.80
2022-09-05T18:53:10.572Z,58.38
2022-09-05T18:54:20.282Z,58.71
2022-09-05T18:56:10.527Z,58.58
2022-09-05T18:57:15.257Z,58.57
2022-09-05T18:58:26.692Z,59.17
2022-09-05T18:59:41.930Z,58.79
2022-09-05T19:00:49.487Z,59.10
2022-09-05T19:02:02.927Z,59.32
2022-09-05T19:03:26.394Z,59.05
2022-09-05T19:04:39.872Z,59.55
2022-09-05T19:05:56.290Z,59.83
2022-09-05T19:07:35.724Z,59.74
2022-09-05T19:08:55.027Z,59.49
2022-09-05T19:10:35.810Z,59.43
2022-09-05T19:11:52.104Z,59.13
2022-09-05T19:13:03.415Z,58.41
2022-09-05T19:14:34.149Z,58.38
2022-09-05T19:16:02.335Z,59.41
2022-09-05T19:17:47.317Z,59.48
2022-09-05T19:19:10.150Z,59.53
2022-09-05T19:20:32.053Z,60.21
2022-09-05T19:21:43.984Z,60.29
2022-09-05T19:23:11.272Z,60.57
2022-09-05T19:24:18.279Z,60.38
2022-09-05T19:25:33.735Z,60.64
2022-09-05T19:26:36.279Z,60.43
2022-09-05T19:35:45.438Z,60.78
2022-09-05T19:36:09.116Z,60.41
2022-09-05T19:36:51.245Z,61.67
2022-09-05T19:36:52.633Z,60.22
2022-09-05T19:36:55.344Z,61.26
2022-09-05T19:36:57.368Z,60.95
2022-09-05T19:37:07.576Z,61.34
2022-09-05T19:38:02.859Z,61.95
2022-09-05T19:41:51.209Z,61.92
2022-09-05T19:47:11.147Z,62.31
2022-09-05T19:47:27.709Z,62.13
2022-09-05T19:47:36.582Z,61.73
2022-09-05T19:47:38.174Z,62.61
2022-09-05T19:47:42.801Z,61.88
2022-09-05T19:49:12.552Z,62.35
2022-09-05T19:50:20.872Z,61.93
2022-09-05T19:51:26.778Z,61.56
2022-09-05T19:52:29.179Z,62.11
2022-09-05T19:53:37.567Z,62.20
2022-09-05T19:54:42.962Z,62.33
2022-09-05T19:55:46.506Z,62.15
2022-09-05T19:56:48.662Z,62.67
2022-09-05T19:58:19.543Z,62.90
2022-09-05T19:59:19.193Z,62.93
2022-09-05T20:00:28.186Z,62.66
2022-09-05T20:01:31.005Z,62.69
2022-09-05T20:02:33.253Z,62.50
2022-09-05T20:03:42.027Z,62.19
2022-09-05T20:04:52.880Z,62.35
2022-09-05T20:05:55.322Z,62.08
2022-09-05T20:06:57.402Z,61.99
2022-09-05T20:08:00.041Z,62.89
2022-09-05T20:09:09.538Z,62.33
2022-09-05T20:10:25.499Z,62.16
2022-09-05T20:11:39.962Z,62.09
2022-09-05T20:12:47.221Z,63.05
2022-09-05T20:13:49.101Z,62.71
2022-09-05T20:14:51.009Z,62.76
2022-09-05T20:15:52.866Z,62.68
2022-09-05T20:17:01.301Z,61.85
2022-09-05T20:18:23.685Z,62.20
2022-09-05T20:19:32.970Z,61.59
2022-09-05T20:20:34.774Z,61.50
2022-09-05T20:21:36.554Z,61.77
2022-09-05T20:22:48.573Z,61.58
2022-09-05T20:23:56.256Z,61.40
2022-09-05T20:25:10.338Z,61.53
2022-09-05T20:26:26.464Z,61.41
2022-09-05T20:27:30.543Z,61.03
2022-09-05T20:28:37.717Z,60.85
2022-09-05T20:30:17.259Z,60.92
2022-09-05T20:31:27.619Z,60.89
2022-09-05T20:32:39.366Z,60.70
2022-09-05T20:33:51.918Z,60.48
2022-09-05T20:40:29.367Z,60.20
2022-09-05T20:43:07.762Z,60.39
2022-09-05T20:43:17.662Z,60.68
2022-09-05T20:43:22.466Z,60.35
2022-09-05T20:43:26.808Z,60.43